Pythagoras — C6ZO4 — position and weather

sailwx.info

Track history (hours):
 
Tides and Currents Weather Stations Pressure Air Temp Water Temp Dewpoint Dewpoint Depression Visibility Wind Speed Wind Dir Waves Ship Positions

Pythagoras

Last reported at 2017-Oct-17 20:41 UTC. Time now 2017-Oct-20 12:21 UTC.
Position N 01°17' E 104°19'.

Length 190 m; draft 12.7 m.

Type: Cargo ship. MMSI: 311061300.

Date/timePositionNaut miles runAvg speedWind from/ knotsBaromVisibWave heightAir tempDewpointWater temp
2017-Oct-17 20:41N 01°17' E 104°19'2 3.6
2017-Oct-17 20:02N 01°16' E 104°17'2 3.3
2017-Oct-17 19:35N 01°16' E 104°15'1 3.4
2017-Oct-17 19:23N 01°16' E 104°14'1 3.5
2017-Oct-17 19:00N 01°16' E 104°13'2 3.1
2017-Oct-17 18:29N 01°16' E 104°11'2 3.5
2017-Oct-17 17:58N 01°16' E 104°10'2 3.6
2017-Oct-17 17:30N 01°15' E 104°08'2 3.5
2017-Oct-17 17:00N 01°15' E 104°06'914.2
2017-Oct-17 16:22N 01°17' E 103°57'0 0.2
2017-Oct-17 15:58N 01°17' E 103°57'0 0.0
2017-Oct-17 15:09N 01°17' E 103°57'0 0.0
2017-Oct-17 14:57N 01°17' E 103°57'0 0.0
2017-Oct-17 14:21N 01°17' E 103°57'0 0.2
2017-Oct-17 13:57N 01°17' E 103°57'0 0.1
2017-Oct-17 12:58N 01°17' E 103°57'0 0.0
2017-Oct-17 12:20N 01°17' E 103°57'0 0.1
2017-Oct-17 11:13N 01°17' E 103°57'0 0.0
2017-Oct-17 10:58N 01°17' E 103°57'18 7.8
2017-Oct-17 08:43N 01°16' E 104°15'313.3
2017-Oct-17 08:28N 01°16' E 104°11'713.2
2017-Oct-17 07:58N 01°15' E 104°05'612.4
2017-Oct-17 07:30N 01°14' E 103°59'3 6.3
2017-Oct-17 07:00N 01°16' E 103°57'1 1.5
2017-Oct-17 06:28N 01°17' E 103°57'0 0.0
2017-Oct-17 05:58N 01°17' E 103°57'0 0.0
2017-Oct-17 05:22N 01°17' E 103°57'0 0.0
2017-Oct-17 04:52N 01°17' E 103°57'0 0.2
2017-Oct-17 04:28N 01°17' E 103°57'1117.3
2017-Oct-17 03:50N 01°17' E 104°09'1 1.9
2017-Oct-17 03:30N 01°17' E 104°09'1218.6
2017-Oct-17 02:52N 01°17' E 103°57'0 0.1
2017-Oct-17 02:22N 01°17' E 103°57'0 0.0
2017-Oct-17 00:58N 01°17' E 103°57'0 0.1
2017-Oct-17 00:28N 01°17' E 103°57'0 0.0
2017-Oct-16 23:58N 01°17' E 103°57'0 0.0
2017-Oct-16 23:13N 01°17' E 103°57'0 0.1
2017-Oct-16 22:55N 01°17' E 103°57'0 0.2
2017-Oct-16 21:40N 01°17' E 103°57'0 0.0
2017-Oct-16 21:25N 01°17' E 103°57'0 0.1
2017-Oct-16 20:52N 01°17' E 103°57'0 0.0
2017-Oct-16 20:13N 01°17' E 103°57'0 0.1
2017-Oct-16 19:58N 01°17' E 103°57'0 0.0
2017-Oct-16 19:28N 01°17' E 103°57'0 0.1
2017-Oct-16 18:58N 01°17' E 103°57'0 0.1
2017-Oct-16 18:19N 01°17' E 103°58'0 0.2
2017-Oct-16 17:58N 01°17' E 103°57'0 0.5
2017-Oct-16 17:30N 01°17' E 103°58'2 4.9
2017-Oct-16 17:00N 01°16' E 103°60'3 5.6
2017-Oct-16 16:30N 01°16' E 104°03'4 7.9
2017-Oct-16 15:58N 01°17' E 104°07'  
Track history (hours):
 
Tides and Currents Weather Stations Pressure Air Temp Water Temp Dewpoint Dewpoint Depression Visibility Wind Speed Wind Dir Waves Ship Positions

Pythagoras

Last reported at 2017-Oct-17 20:41 UTC. Time now 2017-Oct-20 12:21 UTC.
Position N 01°17' E 104°19'.

Length 190 m; draft 12.7 m.

Type: Cargo ship. MMSI: 311061300.

Date/timePositionNaut miles runAvg speedWind from/ knotsBaromVisibWave heightAir tempDewpointWater temp
2017-Oct-17 20:41N 01°17' E 104°19'2 3.6
2017-Oct-17 20:02N 01°16' E 104°17'2 3.3
2017-Oct-17 19:35N 01°16' E 104°15'1 3.4
2017-Oct-17 19:23N 01°16' E 104°14'1 3.5
2017-Oct-17 19:00N 01°16' E 104°13'2 3.1
2017-Oct-17 18:29N 01°16' E 104°11'2 3.5
2017-Oct-17 17:58N 01°16' E 104°10'2 3.6
2017-Oct-17 17:30N 01°15' E 104°08'2 3.5
2017-Oct-17 17:00N 01°15' E 104°06'914.2
2017-Oct-17 16:22N 01°17' E 103°57'0 0.2
2017-Oct-17 15:58N 01°17' E 103°57'0 0.0
2017-Oct-17 15:09N 01°17' E 103°57'0 0.0
2017-Oct-17 14:57N 01°17' E 103°57'0 0.0
2017-Oct-17 14:21N 01°17' E 103°57'0 0.2
2017-Oct-17 13:57N 01°17' E 103°57'0 0.1
2017-Oct-17 12:58N 01°17' E 103°57'0 0.0
2017-Oct-17 12:20N 01°17' E 103°57'0 0.1
2017-Oct-17 11:13N 01°17' E 103°57'0 0.0
2017-Oct-17 10:58N 01°17' E 103°57'18 7.8
2017-Oct-17 08:43N 01°16' E 104°15'313.3
2017-Oct-17 08:28N 01°16' E 104°11'713.2
2017-Oct-17 07:58N 01°15' E 104°05'612.4
2017-Oct-17 07:30N 01°14' E 103°59'3 6.3
2017-Oct-17 07:00N 01°16' E 103°57'1 1.5
2017-Oct-17 06:28N 01°17' E 103°57'0 0.0
2017-Oct-17 05:58N 01°17' E 103°57'0 0.0
2017-Oct-17 05:22N 01°17' E 103°57'0 0.0
2017-Oct-17 04:52N 01°17' E 103°57'0 0.2
2017-Oct-17 04:28N 01°17' E 103°57'1117.3
2017-Oct-17 03:50N 01°17' E 104°09'1 1.9
2017-Oct-17 03:30N 01°17' E 104°09'1218.6
2017-Oct-17 02:52N 01°17' E 103°57'0 0.1
2017-Oct-17 02:22N 01°17' E 103°57'0 0.0
2017-Oct-17 00:58N 01°17' E 103°57'0 0.1
2017-Oct-17 00:28N 01°17' E 103°57'0 0.0
2017-Oct-16 23:58N 01°17' E 103°57'0 0.0
2017-Oct-16 23:13N 01°17' E 103°57'0 0.1
2017-Oct-16 22:55N 01°17' E 103°57'0 0.2
2017-Oct-16 21:40N 01°17' E 103°57'0 0.0
2017-Oct-16 21:25N 01°17' E 103°57'0 0.1
2017-Oct-16 20:52N 01°17' E 103°57'0 0.0
2017-Oct-16 20:13N 01°17' E 103°57'0 0.1
2017-Oct-16 19:58N 01°17' E 103°57'0 0.0
2017-Oct-16 19:28N 01°17' E 103°57'0 0.1
2017-Oct-16 18:58N 01°17' E 103°57'0 0.1
2017-Oct-16 18:19N 01°17' E 103°58'0 0.2
2017-Oct-16 17:58N 01°17' E 103°57'0 0.5
2017-Oct-16 17:30N 01°17' E 103°58'2 4.9
2017-Oct-16 17:00N 01°16' E 103°60'3 5.6
2017-Oct-16 16:30N 01°16' E 104°03'4 7.9
2017-Oct-16 15:58N 01°17' E 104°07'  

Dump ship's entire track history